sensor_id;sensor_type;location;lat;lon;timestamp;temperature;humidity
64939;DHT22;51453;47.738;7.420;2022-11-20T00:01:07;6.90;99.90
64939;DHT22;51453;47.738;7.420;2022-11-20T00:03:33;6.90;99.90
64939;DHT22;51453;47.738;7.420;2022-11-20T00:06:07;6.90;99.90
64939;DHT22;51453;47.738;7.420;2022-11-20T00:08:33;6.90;99.90
64939;DHT22;51453;47.738;7.420;2022-11-20T00:11:07;6.90;99.90
64939;DHT22;51453;47.738;7.420;2022-11-20T00:13:34;6.80;99.90
64939;DHT22;51453;47.738;7.420;2022-11-20T00:16:01;6.80;99.90
64939;DHT22;51453;47.738;7.420;2022-11-20T00:18:27;6.80;99.90
64939;DHT22;51453;47.738;7.420;2022-11-20T00:20:53;6.80;99.90
64939;DHT22;51453;47.738;7.420;2022-11-20T00:23:19;6.80;99.90
64939;DHT22;51453;47.738;7.420;2022-11-20T00:25:45;6.80;99.90
64939;DHT22;51453;47.738;7.420;2022-11-20T00:28:11;6.80;99.90
64939;DHT22;51453;47.738;7.420;2022-11-20T00:30:36;6.80;99.90
64939;DHT22;51453;47.738;7.420;2022-11-20T00:33:02;6.80;99.90
64939;DHT22;51453;47.738;7.420;2022-11-20T00:35:28;6.80;99.90
64939;DHT22;51453;47.738;7.420;2022-11-20T00:37:53;6.80;99.90
64939;DHT22;51453;47.738;7.420;2022-11-20T00:40:19;6.80;99.90
64939;DHT22;51453;47.738;7.420;2022-11-20T00:42:45;6.80;99.90
64939;DHT22;51453;47.738;7.420;2022-11-20T00:45:10;6.80;99.90
64939;DHT22;51453;47.738;7.420;2022-11-20T00:47:36;6.80;99.90
64939;DHT22;51453;47.738;7.420;2022-11-20T00:50:02;6.80;99.90
64939;DHT22;51453;47.738;7.420;2022-11-20T00:52:27;6.80;99.90
64939;DHT22;51453;47.738;7.420;2022-11-20T00:54:53;6.80;99.90
64939;DHT22;51453;47.738;7.420;2022-11-20T00:57:19;6.80;99.90
64939;DHT22;51453;47.738;7.420;2022-11-20T00:59:44;6.80;99.90
64939;DHT22;51453;47.738;7.420;2022-11-20T01:02:10;6.90;99.90
64939;DHT22;51453;47.738;7.420;2022-11-20T01:04:35;6.90;99.90
64939;DHT22;51453;47.738;7.420;2022-11-20T01:07:01;6.90;99.90
64939;DHT22;51453;47.738;7.420;2022-11-20T01:09:27;7.00;99.90
64939;DHT22;51453;47.738;7.420;2022-11-20T01:11:52;7.00;99.90
64939;DHT22;51453;47.738;7.420;2022-11-20T01:14:19;7.00;99.90
64939;DHT22;51453;47.738;7.420;2022-11-20T01:16:48;7.00;99.90
64939;DHT22;51453;47.738;7.420;2022-11-20T01:19:16;6.90;99.90
64939;DHT22;51453;47.738;7.420;2022-11-20T01:21:44;6.90;99.90
64939;DHT22;51453;47.738;7.420;2022-11-20T01:24:15;6.90;99.90
64939;DHT22;51453;47.738;7.420;2022-11-20T01:26:43;6.90;99.90
64939;DHT22;51453;47.738;7.420;2022-11-20T01:29:24;6.90;99.90
64939;DHT22;51453;47.738;7.420;2022-11-20T01:31:50;6.90;99.90
64939;DHT22;51453;47.738;7.420;2022-11-20T01:34:18;6.90;99.90
64939;DHT22;51453;47.738;7.420;2022-11-20T01:36:46;7.00;99.90
64939;DHT22;51453;47.738;7.420;2022-11-20T01:39:18;7.00;99.90
64939;DHT22;51453;47.738;7.420;2022-11-20T01:41:46;7.00;99.90
64939;DHT22;51453;47.738;7.420;2022-11-20T01:44:56;7.00;99.90
64939;DHT22;51453;47.738;7.420;2022-11-20T01:50:25;7.10;99.90
64939;DHT22;51453;47.738;7.420;2022-11-20T01:53:00;7.10;99.90
64939;DHT22;51453;47.738;7.420;2022-11-20T01:55:31;7.10;99.90
64939;DHT22;51453;47.738;7.420;2022-11-20T01:57:58;7.10;99.90
64939;DHT22;51453;47.738;7.420;2022-11-20T02:00:24;7.10;99.90
64939;DHT22;51453;47.738;7.420;2022-11-20T02:02:54;7.00;99.90
64939;DHT22;51453;47.738;7.420;2022-11-20T02:05:32;7.00;99.90
64939;DHT22;51453;47.738;7.420;2022-11-20T02:08:00;7.00;99.90
64939;DHT22;51453;47.738;7.420;2022-11-20T02:10:28;6.90;99.90
64939;DHT22;51453;47.738;7.420;2022-11-20T02:12:54;6.80;99.90
64939;DHT22;51453;47.738;7.420;2022-11-20T02:15:40;6.80;99.90
64939;DHT22;51453;47.738;7.420;2022-11-20T02:18:06;6.60;99.90
64939;DHT22;51453;47.738;7.420;2022-11-20T02:20:32;6.70;99.90
64939;DHT22;51453;47.738;7.420;2022-11-20T02:23:08;6.70;99.90
64939;DHT22;51453;47.738;7.420;2022-11-20T02:25:38;6.70;99.90
64939;DHT22;51453;47.738;7.420;2022-11-20T02:28:05;6.70;99.90
64939;DHT22;51453;47.738;7.420;2022-11-20T02:30:31;6.70;99.90
64939;DHT22;51453;47.738;7.420;2022-11-20T02:32:58;6.70;99.90
64939;DHT22;51453;47.738;7.420;2022-11-20T02:37:52;6.80;99.90
64939;DHT22;51453;47.738;7.420;2022-11-20T02:40:18;6.80;99.90
64939;DHT22;51453;47.738;7.420;2022-11-20T02:42:44;6.90;99.90
64939;DHT22;51453;47.738;7.420;2022-11-20T02:45:10;6.90;99.90
64939;DHT22;51453;47.738;7.420;2022-11-20T02:47:36;6.90;99.90
64939;DHT22;51453;47.738;7.420;2022-11-20T02:50:02;7.00;99.90
64939;DHT22;51453;47.738;7.420;2022-11-20T02:52:28;7.00;99.90
64939;DHT22;51453;47.738;7.420;2022-11-20T02:54:54;7.00;99.90
64939;DHT22;51453;47.738;7.420;2022-11-20T02:57:19;7.00;99.90
64939;DHT22;51453;47.738;7.420;2022-11-20T02:59:45;7.00;99.90
64939;DHT22;51453;47.738;7.420;2022-11-20T03:02:11;6.90;99.90
64939;DHT22;51453;47.738;7.420;2022-11-20T03:04:36;6.90;99.90
64939;DHT22;51453;47.738;7.420;2022-11-20T03:07:02;6.90;99.90
64939;DHT22;51453;47.738;7.420;2022-11-20T03:09:28;6.90;99.90
64939;DHT22;51453;47.738;7.420;2022-11-20T03:11:54;6.90;99.90
64939;DHT22;51453;47.738;7.420;2022-11-20T03:14:19;6.90;99.90
64939;DHT22;51453;47.738;7.420;2022-11-20T03:16:45;6.90;99.90
64939;DHT22;51453;47.738;7.420;2022-11-20T03:19:11;6.90;99.90
64939;DHT22;51453;47.738;7.420;2022-11-20T03:21:37;6.90;99.90
64939;DHT22;51453;47.738;7.420;2022-11-20T03:24:03;6.90;99.90
64939;DHT22;51453;47.738;7.420;2022-11-20T03:26:29;6.90;99.90
64939;DHT22;51453;47.738;7.420;2022-11-20T03:28:57;6.90;99.90
64939;DHT22;51453;47.738;7.420;2022-11-20T03:31:28;6.90;99.90
64939;DHT22;51453;47.738;7.420;2022-11-20T03:33:56;6.90;99.90
64939;DHT22;51453;47.738;7.420;2022-11-20T03:36:23;7.00;99.90
64939;DHT22;51453;47.738;7.420;2022-11-20T03:38:49;7.00;99.90
64939;DHT22;51453;47.738;7.420;2022-11-20T03:41:19;7.00;99.90
64939;DHT22;51453;47.738;7.420;2022-11-20T03:43:59;7.00;99.90
64939;DHT22;51453;47.738;7.420;2022-11-20T03:46:25;7.00;99.90
64939;DHT22;51453;47.738;7.420;2022-11-20T03:48:55;7.00;99.90
64939;DHT22;51453;47.738;7.420;2022-11-20T03:51:23;7.00;99.90
64939;DHT22;51453;47.738;7.420;2022-11-20T03:53:51;7.00;99.90
64939;DHT22;51453;47.738;7.420;2022-11-20T03:56:19;7.00;99.90
64939;DHT22;51453;47.738;7.420;2022-11-20T03:58:45;6.90;99.90
64939;DHT22;51453;47.738;7.420;2022-11-20T04:01:17;6.90;99.90
64939;DHT22;51453;47.738;7.420;2022-11-20T04:03:43;6.90;99.90
64939;DHT22;51453;47.738;7.420;2022-11-20T04:06:19;6.80;99.90
64939;DHT22;51453;47.738;7.420;2022-11-20T04:08:45;6.80;99.90
64939;DHT22;51453;47.738;7.420;2022-11-20T04:11:22;6.70;99.90
64939;DHT22;51453;47.738;7.420;2022-11-20T04:13:50;6.60;99.90
64939;DHT22;51453;47.738;7.420;2022-11-20T04:16:17;6.60;99.90
64939;DHT22;51453;47.738;7.420;2022-11-20T04:18:43;6.60;99.90
64939;DHT22;51453;47.738;7.420;2022-11-20T04:21:09;6.60;99.90
64939;DHT22;51453;47.738;7.420;2022-11-20T04:23:34;6.60;99.90
64939;DHT22;51453;47.738;7.420;2022-11-20T04:26:02;6.60;99.90
64939;DHT22;51453;47.738;7.420;2022-11-20T04:28:28;6.60;99.90
64939;DHT22;51453;47.738;7.420;2022-11-20T04:30:53;6.60;99.90
64939;DHT22;51453;47.738;7.420;2022-11-20T04:33:19;6.60;99.90
64939;DHT22;51453;47.738;7.420;2022-11-20T04:35:47;6.60;99.90
64939;DHT22;51453;47.738;7.420;2022-11-20T04:38:13;6.60;99.90
64939;DHT22;51453;47.738;7.420;2022-11-20T04:40:38;6.60;99.90
64939;DHT22;51453;47.738;7.420;2022-11-20T04:43:04;6.50;99.90
64939;DHT22;51453;47.738;7.420;2022-11-20T04:45:30;6.50;99.90
64939;DHT22;51453;47.738;7.420;2022-11-20T04:47:55;6.30;99.90
64939;DHT22;51453;47.738;7.420;2022-11-20T04:50:21;6.40;99.90
64939;DHT22;51453;47.738;7.420;2022-11-20T04:52:47;6.30;99.90
64939;DHT22;51453;47.738;7.420;2022-11-20T04:55:12;6.30;99.90
64939;DHT22;51453;47.738;7.420;2022-11-20T04:57:38;6.30;99.90
64939;DHT22;51453;47.738;7.420;2022-11-20T05:00:04;6.30;99.90
64939;DHT22;51453;47.738;7.420;2022-11-20T05:02:31;6.40;99.90
64939;DHT22;51453;47.738;7.420;2022-11-20T05:04:57;6.40;99.90
64939;DHT22;51453;47.738;7.420;2022-11-20T05:07:23;6.40;99.90
64939;DHT22;51453;47.738;7.420;2022-11-20T05:09:48;6.40;99.90
64939;DHT22;51453;47.738;7.420;2022-11-20T05:12:14;6.40;99.90
64939;DHT22;51453;47.738;7.420;2022-11-20T05:14:40;6.40;99.90
64939;DHT22;51453;47.738;7.420;2022-11-20T05:17:05;6.40;99.90
64939;DHT22;51453;47.738;7.420;2022-11-20T05:19:31;6.30;99.90
64939;DHT22;51453;47.738;7.420;2022-11-20T05:21:56;6.40;99.90
64939;DHT22;51453;47.738;7.420;2022-11-20T05:24:22;6.40;99.90
64939;DHT22;51453;47.738;7.420;2022-11-20T05:26:48;6.40;99.90
64939;DHT22;51453;47.738;7.420;2022-11-20T05:29:13;6.40;99.90
64939;DHT22;51453;47.738;7.420;2022-11-20T05:31:42;6.40;99.90
64939;DHT22;51453;47.738;7.420;2022-11-20T05:34:08;6.50;99.90
64939;DHT22;51453;47.738;7.420;2022-11-20T05:36:36;6.50;99.90
64939;DHT22;51453;47.738;7.420;2022-11-20T05:39:02;6.50;99.90
64939;DHT22;51453;47.738;7.420;2022-11-20T05:41:27;6.50;99.90
64939;DHT22;51453;47.738;7.420;2022-11-20T05:43:55;6.50;99.90
64939;DHT22;51453;47.738;7.420;2022-11-20T05:46:21;6.60;99.90
64939;DHT22;51453;47.738;7.420;2022-11-20T05:48:47;6.60;99.90
64939;DHT22;51453;47.738;7.420;2022-11-20T05:51:15;6.60;99.90
64939;DHT22;51453;47.738;7.420;2022-11-20T05:53:42;6.50;99.90
64939;DHT22;51453;47.738;7.420;2022-11-20T05:56:11;6.60;99.90
64939;DHT22;51453;47.738;7.420;2022-11-20T05:58:37;6.50;99.90
64939;DHT22;51453;47.738;7.420;2022-11-20T06:01:19;6.50;99.90
64939;DHT22;51453;47.738;7.420;2022-11-20T06:03:45;6.50;99.90
64939;DHT22;51453;47.738;7.420;2022-11-20T06:06:13;6.50;99.90
64939;DHT22;51453;47.738;7.420;2022-11-20T06:08:40;6.40;99.90
64939;DHT22;51453;47.738;7.420;2022-11-20T06:11:08;6.40;99.90
64939;DHT22;51453;47.738;7.420;2022-11-20T06:13:35;6.40;99.90
64939;DHT22;51453;47.738;7.420;2022-11-20T06:16:01;6.40;99.90
64939;DHT22;51453;47.738;7.420;2022-11-20T06:18:27;6.40;99.90
64939;DHT22;51453;47.738;7.420;2022-11-20T06:21:15;6.40;99.90
64939;DHT22;51453;47.738;7.420;2022-11-20T06:23:41;6.50;99.90
64939;DHT22;51453;47.738;7.420;2022-11-20T06:26:09;6.50;99.90
64939;DHT22;51453;47.738;7.420;2022-11-20T06:28:35;6.50;99.90
64939;DHT22;51453;47.738;7.420;2022-11-20T06:31:01;6.60;99.90
64939;DHT22;51453;47.738;7.420;2022-11-20T06:33:26;6.60;99.90
64939;DHT22;51453;47.738;7.420;2022-11-20T06:35:52;6.60;99.90
64939;DHT22;51453;47.738;7.420;2022-11-20T06:38:21;6.60;99.90
64939;DHT22;51453;47.738;7.420;2022-11-20T06:40:46;6.60;99.90
64939;DHT22;51453;47.738;7.420;2022-11-20T06:43:12;6.60;99.90
64939;DHT22;51453;47.738;7.420;2022-11-20T06:45:38;6.60;99.90
64939;DHT22;51453;47.738;7.420;2022-11-20T06:48:04;6.70;99.90
64939;DHT22;51453;47.738;7.420;2022-11-20T06:50:29;6.70;99.90
64939;DHT22;51453;47.738;7.420;2022-11-20T06:52:55;6.70;99.90
64939;DHT22;51453;47.738;7.420;2022-11-20T06:55:21;6.60;99.90
64939;DHT22;51453;47.738;7.420;2022-11-20T06:57:46;6.60;99.90
64939;DHT22;51453;47.738;7.420;2022-11-20T07:00:13;6.60;99.90
64939;DHT22;51453;47.738;7.420;2022-11-20T07:02:39;6.70;99.90
64939;DHT22;51453;47.738;7.420;2022-11-20T07:05:04;6.60;99.90
64939;DHT22;51453;47.738;7.420;2022-11-20T07:07:30;6.60;99.90
64939;DHT22;51453;47.738;7.420;2022-11-20T07:09:56;6.70;99.90
64939;DHT22;51453;47.738;7.420;2022-11-20T07:12:21;6.70;99.90
64939;DHT22;51453;47.738;7.420;2022-11-20T07:14:47;6.80;99.90
64939;DHT22;51453;47.738;7.420;2022-11-20T07:17:13;6.90;99.90
64939;DHT22;51453;47.738;7.420;2022-11-20T07:19:38;6.90;99.90
64939;DHT22;51453;47.738;7.420;2022-11-20T07:22:04;7.00;99.90
64939;DHT22;51453;47.738;7.420;2022-11-20T07:24:29;7.00;99.90
64939;DHT22;51453;47.738;7.420;2022-11-20T07:26:55;7.00;99.90
64939;DHT22;51453;47.738;7.420;2022-11-20T07:29:21;7.10;99.90
64939;DHT22;51453;47.738;7.420;2022-11-20T07:31:46;7.10;99.90
64939;DHT22;51453;47.738;7.420;2022-11-20T07:34:12;7.10;99.90
64939;DHT22;51453;47.738;7.420;2022-11-20T07:36:38;7.20;99.90
64939;DHT22;51453;47.738;7.420;2022-11-20T07:39:04;7.20;99.90
64939;DHT22;51453;47.738;7.420;2022-11-20T07:41:29;7.20;99.90
64939;DHT22;51453;47.738;7.420;2022-11-20T07:43:55;7.20;99.90
64939;DHT22;51453;47.738;7.420;2022-11-20T07:46:20;7.30;99.90
64939;DHT22;51453;47.738;7.420;2022-11-20T07:48:46;7.20;99.90
64939;DHT22;51453;47.738;7.420;2022-11-20T07:51:12;7.20;99.90
64939;DHT22;51453;47.738;7.420;2022-11-20T07:53:38;7.20;99.90
64939;DHT22;51453;47.738;7.420;2022-11-20T07:56:04;7.20;99.90
64939;DHT22;51453;47.738;7.420;2022-11-20T07:58:30;7.20;99.90
64939;DHT22;51453;47.738;7.420;2022-11-20T08:01:01;7.20;99.90
64939;DHT22;51453;47.738;7.420;2022-11-20T08:03:27;7.20;99.90
64939;DHT22;51453;47.738;7.420;2022-11-20T08:05:53;7.30;99.90
64939;DHT22;51453;47.738;7.420;2022-11-20T08:08:18;7.30;99.90
64939;DHT22;51453;47.738;7.420;2022-11-20T08:10:44;7.40;99.90
64939;DHT22;51453;47.738;7.420;2022-11-20T08:13:10;7.40;99.90
64939;DHT22;51453;47.738;7.420;2022-11-20T08:15:54;7.40;99.90
64939;DHT22;51453;47.738;7.420;2022-11-20T08:18:20;7.50;99.90
64939;DHT22;51453;47.738;7.420;2022-11-20T08:20:45;7.50;99.90
64939;DHT22;51453;47.738;7.420;2022-11-20T08:23:11;7.60;99.90
64939;DHT22;51453;47.738;7.420;2022-11-20T08:25:37;7.60;99.90
64939;DHT22;51453;47.738;7.420;2022-11-20T08:28:08;7.60;99.90
64939;DHT22;51453;47.738;7.420;2022-11-20T08:30:34;7.60;99.90
64939;DHT22;51453;47.738;7.420;2022-11-20T08:33:05;7.60;99.90
64939;DHT22;51453;47.738;7.420;2022-11-20T08:35:34;7.70;99.90
64939;DHT22;51453;47.738;7.420;2022-11-20T08:38:01;7.70;99.90
64939;DHT22;51453;47.738;7.420;2022-11-20T08:40:27;7.80;99.90
64939;DHT22;51453;47.738;7.420;2022-11-20T08:42:52;7.80;99.90
64939;DHT22;51453;47.738;7.420;2022-11-20T08:45:19;7.80;99.90
64939;DHT22;51453;47.738;7.420;2022-11-20T08:47:45;7.90;99.90
64939;DHT22;51453;47.738;7.420;2022-11-20T08:50:13;7.90;99.90
64939;DHT22;51453;47.738;7.420;2022-11-20T08:52:39;8.00;99.90
64939;DHT22;51453;47.738;7.420;2022-11-20T08:55:06;8.00;99.90
64939;DHT22;51453;47.738;7.420;2022-11-20T08:57:36;8.00;99.90
64939;DHT22;51453;47.738;7.420;2022-11-20T09:00:04;8.10;99.90
64939;DHT22;51453;47.738;7.420;2022-11-20T09:02:30;8.20;99.90
64939;DHT22;51453;47.738;7.420;2022-11-20T09:04:58;8.20;99.90
64939;DHT22;51453;47.738;7.420;2022-11-20T09:07:23;8.30;99.90
64939;DHT22;51453;47.738;7.420;2022-11-20T09:09:49;8.30;99.90
64939;DHT22;51453;47.738;7.420;2022-11-20T09:12:15;8.30;99.90
64939;DHT22;51453;47.738;7.420;2022-11-20T09:14:41;8.30;99.90
64939;DHT22;51453;47.738;7.420;2022-11-20T09:17:06;8.40;99.90
64939;DHT22;51453;47.738;7.420;2022-11-20T09:19:33;8.30;99.90
64939;DHT22;51453;47.738;7.420;2022-11-20T09:21:59;8.40;99.90
64939;DHT22;51453;47.738;7.420;2022-11-20T09:24:26;8.40;99.90
64939;DHT22;51453;47.738;7.420;2022-11-20T09:26:52;8.40;99.90
64939;DHT22;51453;47.738;7.420;2022-11-20T09:29:17;8.30;99.90
64939;DHT22;51453;47.738;7.420;2022-11-20T09:31:43;8.40;99.90
64939;DHT22;51453;47.738;7.420;2022-11-20T09:34:09;8.50;99.90
64939;DHT22;51453;47.738;7.420;2022-11-20T09:36:35;8.40;99.90
64939;DHT22;51453;47.738;7.420;2022-11-20T09:39:00;8.50;99.90
64939;DHT22;51453;47.738;7.420;2022-11-20T09:47:01;8.60;99.90
64939;DHT22;51453;47.738;7.420;2022-11-20T09:53:19;8.80;99.90
64939;DHT22;51453;47.738;7.420;2022-11-20T09:55:48;8.90;99.90
64939;DHT22;51453;47.738;7.420;2022-11-20T09:58:25;9.00;99.90
64939;DHT22;51453;47.738;7.420;2022-11-20T10:01:08;9.00;99.90
64939;DHT22;51453;47.738;7.420;2022-11-20T10:06:12;9.00;99.90
64939;DHT22;51453;47.738;7.420;2022-11-20T10:08:47;9.10;99.90
64939;DHT22;51453;47.738;7.420;2022-11-20T10:26:59;8.80;99.90
64939;DHT22;51453;47.738;7.420;2022-11-20T10:29:36;8.80;99.90
64939;DHT22;51453;47.738;7.420;2022-11-20T10:32:09;8.80;99.90
64939;DHT22;51453;47.738;7.420;2022-11-20T10:34:53;8.90;99.90
64939;DHT22;51453;47.738;7.420;2022-11-20T10:37:25;9.00;99.90
64939;DHT22;51453;47.738;7.420;2022-11-20T10:42:41;9.20;99.90
64939;DHT22;51453;47.738;7.420;2022-11-20T10:50:33;9.80;99.90
64939;DHT22;51453;47.738;7.420;2022-11-20T10:53:31;9.70;99.90
64939;DHT22;51453;47.738;7.420;2022-11-20T10:56:07;9.60;99.90
64939;DHT22;51453;47.738;7.420;2022-11-20T10:59:02;9.60;99.90
64939;DHT22;51453;47.738;7.420;2022-11-20T11:01:29;9.60;99.90
64939;DHT22;51453;47.738;7.420;2022-11-20T11:03:55;9.60;99.90
64939;DHT22;51453;47.738;7.420;2022-11-20T11:06:33;9.90;99.90
64939;DHT22;51453;47.738;7.420;2022-11-20T11:09:26;10.10;99.90
64939;DHT22;51453;47.738;7.420;2022-11-20T11:11:55;10.30;99.90
64939;DHT22;51453;47.738;7.420;2022-11-20T11:14:21;10.60;99.90
64939;DHT22;51453;47.738;7.420;2022-11-20T11:16:50;10.80;99.90
64939;DHT22;51453;47.738;7.420;2022-11-20T11:19:16;10.90;99.90
64939;DHT22;51453;47.738;7.420;2022-11-20T11:21:50;11.00;99.90
64939;DHT22;51453;47.738;7.420;2022-11-20T11:24:23;11.00;99.90
64939;DHT22;51453;47.738;7.420;2022-11-20T11:27:12;10.80;99.90
64939;DHT22;51453;47.738;7.420;2022-11-20T11:29:38;10.70;99.90
64939;DHT22;51453;47.738;7.420;2022-11-20T11:34:34;10.30;99.90
64939;DHT22;51453;47.738;7.420;2022-11-20T11:37:00;10.20;99.90
64939;DHT22;51453;47.738;7.420;2022-11-20T11:39:29;10.10;99.90
64939;DHT22;51453;47.738;7.420;2022-11-20T11:41:56;10.00;99.90
64939;DHT22;51453;47.738;7.420;2022-11-20T11:44:28;9.90;99.90
64939;DHT22;51453;47.738;7.420;2022-11-20T11:49:47;9.70;99.90
64939;DHT22;51453;47.738;7.420;2022-11-20T11:52:17;9.80;99.90
64939;DHT22;51453;47.738;7.420;2022-11-20T11:54:45;9.70;99.90
64939;DHT22;51453;47.738;7.420;2022-11-20T11:57:57;9.60;99.90
64939;DHT22;51453;47.738;7.420;2022-11-20T12:00:14;9.60;99.90
64939;DHT22;51453;47.738;7.420;2022-11-20T12:05:23;9.80;99.90
64939;DHT22;51453;47.738;7.420;2022-11-20T12:08:01;9.90;99.90
64939;DHT22;51453;47.738;7.420;2022-11-20T12:15:45;9.80;99.90
64939;DHT22;51453;47.738;7.420;2022-11-20T12:18:16;9.70;99.90
64939;DHT22;51453;47.738;7.420;2022-11-20T12:23:31;9.40;99.90
64939;DHT22;51453;47.738;7.420;2022-11-20T12:26:05;9.30;99.90
64939;DHT22;51453;47.738;7.420;2022-11-20T12:34:29;9.40;99.90
64939;DHT22;51453;47.738;7.420;2022-11-20T12:39:43;9.30;99.90
64939;DHT22;51453;47.738;7.420;2022-11-20T12:53:08;9.20;99.90
64939;DHT22;51453;47.738;7.420;2022-11-20T12:58:28;9.30;99.90
64939;DHT22;51453;47.738;7.420;2022-11-20T13:06:13;9.40;99.90
64939;DHT22;51453;47.738;7.420;2022-11-20T13:08:42;9.40;99.90
64939;DHT22;51453;47.738;7.420;2022-11-20T13:11:26;9.40;99.90
64939;DHT22;51453;47.738;7.420;2022-11-20T13:16:34;9.40;99.90
64939;DHT22;51453;47.738;7.420;2022-11-20T13:19:09;9.50;99.90
64939;DHT22;51453;47.738;7.420;2022-11-20T13:21:38;9.60;99.90
64939;DHT22;51453;47.738;7.420;2022-11-20T13:29:33;9.90;99.90
64939;DHT22;51453;47.738;7.420;2022-11-20T13:32:11;9.90;99.90
64939;DHT22;51453;47.738;7.420;2022-11-20T13:34:39;9.80;99.90
64939;DHT22;51453;47.738;7.420;2022-11-20T13:37:05;9.40;99.90
64939;DHT22;51453;47.738;7.420;2022-11-20T13:39:35;9.30;99.90
64939;DHT22;51453;47.738;7.420;2022-11-20T13:44:48;9.10;99.90
64939;DHT22;51453;47.738;7.420;2022-11-20T13:47:26;9.20;99.90
64939;DHT22;51453;47.738;7.420;2022-11-20T13:49:54;9.10;99.90
64939;DHT22;51453;47.738;7.420;2022-11-20T13:52:59;9.00;99.90
64939;DHT22;51453;47.738;7.420;2022-11-20T13:55:32;9.00;99.90
64939;DHT22;51453;47.738;7.420;2022-11-20T14:00:32;9.00;99.90
64939;DHT22;51453;47.738;7.420;2022-11-20T14:05:34;9.00;99.90
64939;DHT22;51453;47.738;7.420;2022-11-20T14:08:03;9.00;99.90
64939;DHT22;51453;47.738;7.420;2022-11-20T14:10:30;9.00;99.90
64939;DHT22;51453;47.738;7.420;2022-11-20T14:12:56;9.10;99.90
64939;DHT22;51453;47.738;7.420;2022-11-20T14:15:33;9.10;99.90
64939;DHT22;51453;47.738;7.420;2022-11-20T14:17:59;9.20;99.90
64939;DHT22;51453;47.738;7.420;2022-11-20T14:20:30;9.20;99.90
64939;DHT22;51453;47.738;7.420;2022-11-20T14:22:56;9.30;99.90
64939;DHT22;51453;47.738;7.420;2022-11-20T14:25:25;9.30;99.90
64939;DHT22;51453;47.738;7.420;2022-11-20T14:27:58;9.30;99.90
64939;DHT22;51453;47.738;7.420;2022-11-20T14:30:29;9.40;99.90
64939;DHT22;51453;47.738;7.420;2022-11-20T14:33:02;9.40;99.90
64939;DHT22;51453;47.738;7.420;2022-11-20T14:35:36;9.40;99.90
64939;DHT22;51453;47.738;7.420;2022-11-20T14:38:03;9.40;99.90
64939;DHT22;51453;47.738;7.420;2022-11-20T14:40:31;9.40;99.90
64939;DHT22;51453;47.738;7.420;2022-11-20T14:42:58;9.40;99.90
64939;DHT22;51453;47.738;7.420;2022-11-20T14:45:25;9.40;99.90
64939;DHT22;51453;47.738;7.420;2022-11-20T14:47:55;9.30;99.90
64939;DHT22;51453;47.738;7.420;2022-11-20T14:50:24;9.20;99.90
64939;DHT22;51453;47.738;7.420;2022-11-20T14:52:53;9.20;99.90
64939;DHT22;51453;47.738;7.420;2022-11-20T14:55:53;9.20;99.90
64939;DHT22;51453;47.738;7.420;2022-11-20T14:58:24;9.20;99.90
64939;DHT22;51453;47.738;7.420;2022-11-20T15:00:56;9.10;99.90
64939;DHT22;51453;47.738;7.420;2022-11-20T15:03:22;9.10;99.90
64939;DHT22;51453;47.738;7.420;2022-11-20T15:05:50;9.00;99.90
64939;DHT22;51453;47.738;7.420;2022-11-20T15:08:17;9.00;99.90
64939;DHT22;51453;47.738;7.420;2022-11-20T15:10:49;9.00;99.90
64939;DHT22;51453;47.738;7.420;2022-11-20T15:13:30;9.00;99.90
64939;DHT22;51453;47.738;7.420;2022-11-20T15:15:58;8.90;99.90
64939;DHT22;51453;47.738;7.420;2022-11-20T15:20:55;8.80;99.90
64939;DHT22;51453;47.738;7.420;2022-11-20T15:23:21;8.80;99.90
64939;DHT22;51453;47.738;7.420;2022-11-20T15:25:48;8.70;99.90
64939;DHT22;51453;47.738;7.420;2022-11-20T15:28:26;8.60;99.90
64939;DHT22;51453;47.738;7.420;2022-11-20T15:30:52;8.60;99.90
64939;DHT22;51453;47.738;7.420;2022-11-20T15:33:18;8.50;99.90
64939;DHT22;51453;47.738;7.420;2022-11-20T15:35:44;8.40;99.90
64939;DHT22;51453;47.738;7.420;2022-11-20T15:38:09;8.40;99.90
64939;DHT22;51453;47.738;7.420;2022-11-20T15:40:35;8.30;99.90
64939;DHT22;51453;47.738;7.420;2022-11-20T15:43:01;8.30;99.90
64939;DHT22;51453;47.738;7.420;2022-11-20T15:48:01;8.20;99.90
64939;DHT22;51453;47.738;7.420;2022-11-20T15:50:54;8.10;99.90
64939;DHT22;51453;47.738;7.420;2022-11-20T15:53:22;8.00;99.90
64939;DHT22;51453;47.738;7.420;2022-11-20T15:55:48;8.00;99.90
64939;DHT22;51453;47.738;7.420;2022-11-20T15:58:13;8.00;99.90
64939;DHT22;51453;47.738;7.420;2022-11-20T16:00:39;8.10;99.90
64939;DHT22;51453;47.738;7.420;2022-11-20T16:03:05;8.10;99.90
64939;DHT22;51453;47.738;7.420;2022-11-20T16:05:30;8.00;99.90
64939;DHT22;51453;47.738;7.420;2022-11-20T16:07:56;7.90;99.90
64939;DHT22;51453;47.738;7.420;2022-11-20T16:10:22;7.90;99.90
64939;DHT22;51453;47.738;7.420;2022-11-20T16:12:49;7.90;99.90
64939;DHT22;51453;47.738;7.420;2022-11-20T16:15:33;7.90;99.90
64939;DHT22;51453;47.738;7.420;2022-11-20T16:18:16;7.90;99.90
64939;DHT22;51453;47.738;7.420;2022-11-20T16:20:42;7.90;99.90
64939;DHT22;51453;47.738;7.420;2022-11-20T16:23:08;8.00;99.90
64939;DHT22;51453;47.738;7.420;2022-11-20T16:25:34;8.00;99.90
64939;DHT22;51453;47.738;7.420;2022-11-20T16:28:00;8.00;99.90
64939;DHT22;51453;47.738;7.420;2022-11-20T16:30:26;8.00;99.90
64939;DHT22;51453;47.738;7.420;2022-11-20T16:32:51;8.00;99.90
64939;DHT22;51453;47.738;7.420;2022-11-20T16:35:17;8.00;99.90
64939;DHT22;51453;47.738;7.420;2022-11-20T16:37:43;7.90;99.90
64939;DHT22;51453;47.738;7.420;2022-11-20T16:40:10;8.00;99.90
64939;DHT22;51453;47.738;7.420;2022-11-20T16:42:36;8.10;99.90
64939;DHT22;51453;47.738;7.420;2022-11-20T16:45:03;8.10;99.90
64939;DHT22;51453;47.738;7.420;2022-11-20T16:47:33;8.00;99.90
64939;DHT22;51453;47.738;7.420;2022-11-20T16:49:58;8.10;99.90
64939;DHT22;51453;47.738;7.420;2022-11-20T16:52:24;8.00;99.90
64939;DHT22;51453;47.738;7.420;2022-11-20T16:54:49;8.00;99.90
64939;DHT22;51453;47.738;7.420;2022-11-20T16:57:15;8.10;99.90
64939;DHT22;51453;47.738;7.420;2022-11-20T16:59:41;8.10;99.90
64939;DHT22;51453;47.738;7.420;2022-11-20T17:02:08;8.10;99.90
64939;DHT22;51453;47.738;7.420;2022-11-20T17:04:35;8.10;99.90
64939;DHT22;51453;47.738;7.420;2022-11-20T17:07:00;8.10;99.90
64939;DHT22;51453;47.738;7.420;2022-11-20T17:09:27;8.10;99.90
64939;DHT22;51453;47.738;7.420;2022-11-20T17:11:53;8.00;99.90
64939;DHT22;51453;47.738;7.420;2022-11-20T17:14:18;8.00;99.90
64939;DHT22;51453;47.738;7.420;2022-11-20T17:16:44;8.00;99.90
64939;DHT22;51453;47.738;7.420;2022-11-20T17:19:10;8.00;99.90
64939;DHT22;51453;47.738;7.420;2022-11-20T17:21:36;7.90;99.90
64939;DHT22;51453;47.738;7.420;2022-11-20T17:24:06;7.90;99.90
64939;DHT22;51453;47.738;7.420;2022-11-20T17:26:32;7.90;99.90
64939;DHT22;51453;47.738;7.420;2022-11-20T17:29:11;8.00;99.90
64939;DHT22;51453;47.738;7.420;2022-11-20T17:31:37;8.00;99.90
64939;DHT22;51453;47.738;7.420;2022-11-20T17:34:04;8.00;99.90
64939;DHT22;51453;47.738;7.420;2022-11-20T17:36:30;8.00;99.90
64939;DHT22;51453;47.738;7.420;2022-11-20T17:39:03;8.00;99.90